Time;durP1;ratioP1;P1;durP2;ratioP2;P2;SDS_P1;SDS_P2;PMS_P1;PMS_P2;Temp;Humidity;BMP_temperature;BMP_pressure;BME280_temperature;BME280_humidity;BME280_pressure;Samples;Min_cycle;Max_cycle;Signal;HPM_P1;HPM_P2
2023/12/16 00:01:45;;;;;;;13.05;8.93;;;;;;;5.77;80.04;100854.31;5029346;27;104173;-67
2023/12/16 00:04:17;;;;;;;14.98;9.35;;;;;;;5.75;79.58;100870.19;5005425;27;104434;-67
2023/12/16 00:06:48;;;;;;;10.15;6.47;;;;;;;5.79;79.81;100873.47;5010423;27;103120;-68
2023/12/16 00:09:18;;;;;;;11.43;8.82;;;;;;;5.87;79.35;100867.78;5023762;27;102727;-67
2023/12/16 00:11:45;;;;;;;13.00;8.40;;;;;;;5.86;79.10;100858.22;5026227;27;104105;-68
2023/12/16 00:14:16;;;;;;;11.73;7.88;;;;;;;5.89;79.58;100864.16;5004695;27;103193;-67
2023/12/16 00:16:45;;;;;;;12.90;9.77;;;;;;;5.79;79.27;100858.56;5011018;27;103913;-67
2023/12/16 00:19:13;;;;;;;9.93;6.75;;;;;;;5.81;79.45;100856.69;5029373;27;102878;-67
2023/12/16 00:21:41;;;;;;;8.70;6.18;;;;;;;5.89;79.55;100858.06;5010325;27;103302;-67
2023/12/16 00:24:09;;;;;;;8.07;5.72;;;;;;;5.97;79.14;100855.84;5026744;27;103823;-67
2023/12/16 00:26:38;;;;;;;10.60;5.85;;;;;;;6.03;79.49;100863.44;5035688;27;103790;-67
2023/12/16 00:29:06;;;;;;;14.10;8.40;;;;;;;5.99;78.89;100856.66;5007809;27;102747;-67
2023/12/16 00:31:34;;;;;;;16.05;8.38;;;;;;;5.96;78.83;100846.25;5043090;27;103471;-67
2023/12/16 00:34:02;;;;;;;8.88;6.38;;;;;;;5.97;78.95;100855.84;5026250;27;103232;-67
2023/12/16 00:36:30;;;;;;;10.18;6.95;;;;;;;6.02;78.96;100853.84;5013602;27;102841;-67
2023/12/16 00:38:59;;;;;;;8.52;6.35;;;;;;;6.03;79.02;100850.28;5029282;27;102638;-67
2023/12/16 00:41:27;;;;;;;9.77;6.43;;;;;;;6.02;79.38;100851.19;5030220;27;103333;-67
2023/12/16 00:43:56;;;;;;;8.45;6.22;;;;;;;6.06;78.86;100857.16;5030997;27;103046;-67
2023/12/16 00:46:24;;;;;;;8.25;5.22;;;;;;;6.07;78.85;100862.31;5029564;27;102796;-67
2023/12/16 00:48:52;;;;;;;12.88;8.93;;;;;;;6.03;78.38;100858.16;5040543;27;102786;-67
2023/12/16 00:51:21;;;;;;;8.55;6.07;;;;;;;5.97;78.93;100866.34;5033070;27;103322;-67
2023/12/16 00:53:51;;;;;;;9.13;6.47;;;;;;;5.98;79.10;100874.19;5010583;27;103223;-67
2023/12/16 00:56:19;;;;;;;10.68;7.57;;;;;;;5.98;78.78;100874.19;5009261;27;103165;-67
2023/12/16 00:58:51;;;;;;;11.18;7.00;;;;;;;5.88;79.83;100885.28;5028418;27;104203;-67
2023/12/16 01:01:20;;;;;;;9.15;5.75;;;;;;;5.81;79.75;100885.59;5032415;27;103178;-67
2023/12/16 01:03:48;;;;;;;8.95;6.30;;;;;;;5.90;79.54;100883.44;5033147;27;102635;-67
2023/12/16 01:06:16;;;;;;;12.02;7.80;;;;;;;5.94;79.25;100887.56;5033742;27;103092;-69
2023/12/16 01:08:44;;;;;;;13.30;8.93;;;;;;;5.90;79.14;100893.94;5027980;27;102808;-67
2023/12/16 01:11:12;;;;;;;10.88;8.07;;;;;;;5.79;79.66;100913.78;5016058;27;103351;-67
2023/12/16 01:13:40;;;;;;;8.48;6.03;;;;;;;5.80;79.63;100915.50;5008180;27;103215;-67
2023/12/16 01:16:08;;;;;;;10.18;6.72;;;;;;;5.89;80.03;100916.75;5030937;27;102657;-67
2023/12/16 01:18:38;;;;;;;11.50;6.53;;;;;;;5.90;79.57;100909.72;5017399;27;104100;-67
2023/12/16 01:21:08;;;;;;;11.50;6.20;;;;;;;5.94;79.36;100900.72;5015743;27;104584;-67
2023/12/16 01:23:37;;;;;;;10.07;6.22;;;;;;;5.97;79.10;100903.19;5005456;27;103214;-67
2023/12/16 01:26:05;;;;;;;8.82;6.25;;;;;;;6.00;79.16;100897.81;5030316;27;103012;-67
2023/12/16 01:28:33;;;;;;;8.95;6.20;;;;;;;6.03;79.02;100910.78;5026470;27;102775;-67
2023/12/16 01:31:02;;;;;;;8.32;6.30;;;;;;;6.06;78.67;100909.75;5010662;27;104625;-67
2023/12/16 01:33:30;;;;;;;8.60;5.95;;;;;;;6.05;79.19;100910.69;5009927;27;103014;-67
2023/12/16 01:35:59;;;;;;;7.05;5.57;;;;;;;6.08;78.93;100906.13;5047818;27;103017;-67
2023/12/16 01:38:28;;;;;;;8.48;5.68;;;;;;;6.11;78.70;100900.66;5012612;27;104226;-67
2023/12/16 01:40:56;;;;;;;9.65;6.07;;;;;;;6.14;79.08;100900.53;5031187;27;103234;-67
2023/12/16 01:43:26;;;;;;;10.07;6.60;;;;;;;6.14;78.66;100892.63;5031998;27;103203;-67
2023/12/16 01:46:02;;;;;;;11.77;7.18;;;;;;;6.18;78.79;100897.72;5031455;27;102726;-67
2023/12/16 01:48:31;;;;;;;9.85;6.43;;;;;;;6.12;79.20;100898.91;5008921;27;104305;-67
2023/12/16 01:51:01;;;;;;;9.55;6.00;;;;;;;6.11;78.83;100900.66;5037684;27;103354;-67
2023/12/16 01:53:32;;;;;;;9.05;6.05;;;;;;;6.13;78.85;100896.19;5033136;27;103158;-67
2023/12/16 01:56:01;;;;;;;8.25;6.03;;;;;;;6.09;78.56;100889.41;5013116;27;102608;-67
2023/12/16 01:58:29;;;;;;;9.57;6.55;;;;;;;6.12;79.17;100888.38;5032351;27;103207;-67
2023/12/16 02:00:57;;;;;;;11.85;7.10;;;;;;;6.12;78.97;100898.91;5027590;27;103349;-68
2023/12/16 02:03:29;;;;;;;11.43;8.88;;;;;;;6.06;78.31;100893.97;5033255;27;103212;-68
2023/12/16 02:05:57;;;;;;;12.18;7.85;;;;;;;5.97;79.21;100900.56;5028697;27;103136;-67
2023/12/16 02:08:27;;;;;;;11.60;8.50;;;;;;;5.97;79.29;100897.91;5008559;27;102637;-67
2023/12/16 02:10:55;;;;;;;12.60;9.43;;;;;;;5.79;79.66;100907.66;5025153;27;103098;-67
2023/12/16 02:13:24;;;;;;;9.95;6.95;;;;;;;5.82;80.43;100897.81;5029020;27;103342;-67
2023/12/16 02:15:52;;;;;;;14.65;5.95;;;;;;;5.91;80.36;100901.75;5004537;27;102720;-67
2023/12/16 02:18:20;;;;;;;7.93;5.60;;;;;;;5.94;80.22;100904.19;5029958;27;103082;-67
2023/12/16 02:20:48;;;;;;;9.57;6.57;;;;;;;5.99;80.06;100909.25;5008366;27;104213;-67
2023/12/16 02:23:18;;;;;;;11.57;8.75;;;;;;;5.98;79.20;100903.13;5029290;27;103295;-67
2023/12/16 02:25:46;;;;;;;8.95;6.63;;;;;;;5.92;79.70;100906.09;5030819;27;102741;-68
2023/12/16 02:28:14;;;;;;;10.40;6.97;;;;;;;5.93;79.54;100909.56;5027289;27;103011;-68
2023/12/16 02:30:42;;;;;;;11.27;8.57;;;;;;;5.86;79.20;100921.34;5032477;27;103910;-67
2023/12/16 02:33:10;;;;;;;13.60;9.88;;;;;;;5.75;79.41;100916.66;5029274;27;103180;-67
2023/12/16 02:35:38;;;;;;;10.32;6.85;;;;;;;5.67;80.14;100924.94;5028204;27;102675;-68
2023/12/16 02:38:07;;;;;;;13.88;7.00;;;;;;;5.71;79.79;100934.41;5027746;27;102703;-67
2023/12/16 02:40:41;;;;;;;8.63;5.97;;;;;;;5.80;80.33;100931.28;5030932;27;103462;-67
2023/12/16 02:43:09;;;;;;;10.25;6.10;;;;;;;5.87;79.73;100925.66;5026784;27;103959;-67
2023/12/16 02:45:38;;;;;;;8.02;5.88;;;;;;;5.92;79.94;100918.38;5020136;27;103078;-68
2023/12/16 02:48:06;;;;;;;9.32;6.85;;;;;;;5.90;79.20;100928.13;5025261;27;103878;-68
2023/12/16 02:50:35;;;;;;;8.95;6.40;;;;;;;5.91;79.44;100922.78;5030361;27;103323;-68
2023/12/16 02:53:06;;;;;;;7.22;5.60;;;;;;;5.94;79.79;100913.88;5027615;27;103187;-68
2023/12/16 02:55:35;;;;;;;7.18;5.43;;;;;;;5.97;79.66;100911.94;5032383;27;103154;-69
2023/12/16 02:58:03;;;;;;;8.90;6.28;;;;;;;5.98;79.83;100907.56;5038264;27;104306;-68
2023/12/16 03:00:31;;;;;;;9.90;6.32;;;;;;;6.00;79.39;100913.59;5025620;27;102752;-68
2023/12/16 03:02:59;;;;;;;13.80;9.38;;;;;;;5.93;78.18;100920.06;5003659;27;103342;-68
2023/12/16 03:05:27;;;;;;;11.43;8.30;;;;;;;5.72;79.69;100922.09;5015142;27;103107;-68
2023/12/16 03:07:56;;;;;;;11.70;9.13;;;;;;;5.65;79.76;100925.03;5022877;27;102747;-68
2023/12/16 03:10:23;;;;;;;13.23;8.43;;;;;;;5.66;80.14;100939.03;5027009;27;104543;-68
2023/12/16 03:12:56;;;;;;;10.23;7.50;;;;;;;5.67;80.24;100940.72;5009109;27;103208;-69
2023/12/16 03:15:27;;;;;;;13.18;9.27;;;;;;;5.60;80.39;100942.00;5009240;27;102700;-68
2023/12/16 03:17:55;;;;;;;14.02;9.98;;;;;;;5.58;80.54;100931.56;5028613;27;102721;-68
2023/12/16 03:20:23;;;;;;;12.50;9.40;;;;;;;5.57;80.56;100936.91;5007343;27;104292;-68
2023/12/16 03:22:52;;;;;;;11.02;8.23;;;;;;;5.58;81.13;100941.22;5027801;27;103284;-68
2023/12/16 03:25:23;;;;;;;11.73;8.60;;;;;;;5.61;81.08;100930.56;5026690;27;102578;-68
2023/12/16 03:27:51;;;;;;;10.82;7.97;;;;;;;5.66;81.08;100931.16;5022221;27;102725;-68
2023/12/16 03:30:23;;;;;;;8.90;6.88;;;;;;;5.70;80.42;100934.44;5019956;27;103294;-68
2023/12/16 03:32:50;;;;;;;10.25;8.02;;;;;;;5.75;80.81;100933.28;5007273;27;103410;-68
2023/12/16 03:35:18;;;;;;;8.30;6.13;;;;;;;5.77;80.59;100931.41;5029990;27;102721;-69
2023/12/16 03:37:46;;;;;;;10.35;6.82;;;;;;;5.77;80.18;100931.41;5014601;27;104253;-68
2023/12/16 03:40:14;;;;;;;11.27;8.73;;;;;;;5.73;79.82;100937.78;5005618;27;104382;-68
2023/12/16 03:42:42;;;;;;;12.20;9.30;;;;;;;5.68;80.28;100931.06;5006686;27;104309;-68
2023/12/16 03:45:11;;;;;;;13.07;9.80;;;;;;;5.62;80.40;100937.47;5025951;27;102875;-68
2023/12/16 03:47:41;;;;;;;10.90;7.93;;;;;;;5.60;80.58;100939.34;5008858;27;102855;-68
2023/12/16 03:50:09;;;;;;;15.65;7.78;;;;;;;5.59;80.67;100933.25;5008740;27;104288;-67
2023/12/16 03:52:40;;;;;;;10.18;6.60;;;;;;;5.61;80.74;100931.38;5031229;27;103201;-68
2023/12/16 03:55:08;;;;;;;9.70;6.80;;;;;;;5.61;80.90;100927.91;5010167;27;102788;-68
2023/12/16 03:57:36;;;;;;;8.75;6.40;;;;;;;5.66;80.87;100928.53;5004807;27;102877;-68
2023/12/16 04:00:08;;;;;;;8.43;5.55;;;;;;;5.71;81.05;100926.50;5032671;27;103326;-68
2023/12/16 04:02:40;;;;;;;10.52;6.40;;;;;;;5.77;80.64;100925.31;5011631;27;103294;-68
2023/12/16 04:05:08;;;;;;;7.57;5.72;;;;;;;5.78;80.48;100927.84;5015886;27;102969;-68
2023/12/16 04:07:36;;;;;;;10.23;6.07;;;;;;;5.80;80.03;100933.03;5031605;27;103967;-67
2023/12/16 04:10:06;;;;;;;10.20;6.57;;;;;;;5.77;80.38;100931.41;5032818;27;104156;-68
2023/12/16 04:12:35;;;;;;;9.15;6.97;;;;;;;5.81;80.30;100942.63;5033079;27;103229;-70
2023/12/16 04:15:03;;;;;;;11.32;7.03;;;;;;;5.81;80.33;100943.47;5012877;27;103091;-69
2023/12/16 04:17:31;;;;;;;8.32;5.88;;;;;;;5.77;80.20;100939.31;5047236;27;103013;-70
2023/12/16 04:20:01;;;;;;;7.55;5.65;;;;;;;5.81;80.04;100938.19;5031160;27;103299;-69
2023/12/16 04:22:28;;;;;;;10.57;7.88;;;;;;;5.86;79.83;100947.66;5010052;27;104146;-70
2023/12/16 04:25:00;;;;;;;8.80;6.75;;;;;;;5.80;79.97;100941.78;5012848;27;102939;-70
2023/12/16 04:27:28;;;;;;;8.45;6.85;;;;;;;5.79;80.21;100939.22;5031085;27;102825;-69
2023/12/16 04:29:56;;;;;;;9.32;6.78;;;;;;;5.81;80.15;100951.34;5033300;27;103353;-70
2023/12/16 04:32:24;;;;;;;9.32;6.82;;;;;;;5.83;79.97;100948.66;5014890;27;103342;-70
2023/12/16 04:34:56;;;;;;;8.77;6.13;;;;;;;5.82;80.27;100945.16;5028948;27;102735;-69
2023/12/16 04:37:25;;;;;;;7.95;5.78;;;;;;;5.83;79.99;100940.78;5036475;27;102677;-70
2023/12/16 04:39:53;;;;;;;8.57;5.10;;;;;;;5.76;80.23;100937.59;5009614;27;104492;-70
2023/12/16 04:42:22;;;;;;;7.97;5.35;;;;;;;5.77;80.18;100935.84;5009100;27;103397;-70
2023/12/16 04:44:52;;;;;;;6.90;4.38;;;;;;;5.77;79.95;100936.66;5034098;27;102890;-70
2023/12/16 04:47:20;;;;;;;6.68;4.50;;;;;;;5.81;80.02;100940.84;5033791;27;102937;-70
2023/12/16 04:49:50;;;;;;;6.95;4.78;;;;;;;5.86;80.39;100945.03;5029474;27;104089;-70
2023/12/16 04:52:18;;;;;;;7.07;5.18;;;;;;;5.89;79.86;100934.31;5010893;27;103372;-70
2023/12/16 04:54:50;;;;;;;7.22;4.82;;;;;;;5.89;79.61;100947.47;5015113;27;102701;-70
2023/12/16 04:57:18;;;;;;;6.18;3.60;;;;;;;5.89;79.44;100944.84;5014538;27;104117;-72
2023/12/16 04:59:46;;;;;;;6.60;4.45;;;;;;;5.89;79.37;100939.59;5006555;27;103084;-70
2023/12/16 05:02:14;;;;;;;5.43;4.00;;;;;;;5.92;79.49;100932.38;5006955;27;104203;-70
2023/12/16 05:04:44;;;;;;;6.20;4.20;;;;;;;5.91;79.51;100930.69;5028691;27;102763;-70
2023/12/16 05:07:12;;;;;;;6.07;4.00;;;;;;;5.91;79.54;100937.72;5032782;27;102597;-70
2023/12/16 05:09:40;;;;;;;6.63;4.43;;;;;;;5.89;79.51;100939.59;5017327;27;104873;-70
2023/12/16 05:12:10;;;;;;;8.40;6.00;;;;;;;5.74;78.91;100947.38;5009676;27;103227;-70
2023/12/16 05:14:41;;;;;;;7.97;5.05;;;;;;;5.67;79.63;100951.22;5005589;27;102716;-70
2023/12/16 05:17:09;;;;;;;5.95;4.57;;;;;;;5.69;79.68;100949.38;5005769;27;104503;-70
2023/12/16 05:19:37;;;;;;;6.10;4.68;;;;;;;5.69;79.61;100954.66;4999367;27;104653;-70
2023/12/16 05:26:01;;;;;;;6.18;4.22;;;;;;;5.71;79.83;100944.91;4997363;27;102791;-69
2023/12/16 05:28:32;;;;;;;7.82;4.05;;;;;;;5.72;80.03;100951.84;5029963;27;102723;-70
2023/12/16 05:31:00;;;;;;;5.68;4.05;;;;;;;5.75;79.89;100948.19;5031730;27;103298;-70
2023/12/16 05:33:28;;;;;;;6.50;4.18;;;;;;;5.77;79.19;100946.34;5032778;27;103247;-70
2023/12/16 05:35:57;;;;;;;6.43;4.15;;;;;;;5.79;79.58;100950.59;5029594;27;102824;-70
2023/12/16 05:38:26;;;;;;;6.60;4.10;;;;;;;5.79;79.29;100950.59;5026911;27;103806;-70
2023/12/16 05:40:54;;;;;;;5.40;3.67;;;;;;;5.82;79.68;100953.06;5009805;27;103521;-71
2023/12/16 05:43:22;;;;;;;4.65;3.33;;;;;;;5.85;78.95;100953.84;5009462;27;104172;-70
2023/12/16 05:45:51;;;;;;;4.22;2.92;;;;;;;5.79;78.60;100952.38;5030905;27;102695;-70
2023/12/16 05:48:19;;;;;;;5.95;4.55;;;;;;;5.79;78.52;100947.97;5027572;27;103136;-70
2023/12/16 05:50:48;;;;;;;5.93;3.80;;;;;;;5.76;78.60;100945.47;5030842;27;103133;-70
2023/12/16 05:53:16;;;;;;;5.63;3.38;;;;;;;5.77;78.93;100954.25;5027997;27;103189;-70
2023/12/16 05:55:47;;;;;;;5.43;3.47;;;;;;;5.77;78.54;100954.25;5041734;27;102772;-70
2023/12/16 05:58:15;;;;;;;7.32;4.40;;;;;;;5.78;78.46;100948.91;5011663;27;104458;-70
2023/12/16 06:00:48;;;;;;;5.68;3.72;;;;;;;5.73;78.56;100944.81;5006995;27;103362;-70
2023/12/16 06:03:17;;;;;;;8.10;5.00;;;;;;;5.73;78.19;100953.53;5031546;27;103261;-70
2023/12/16 06:05:46;;;;;;;7.13;4.40;;;;;;;5.65;78.82;100951.31;5009804;27;102704;-70
2023/12/16 06:08:14;;;;;;;7.40;4.88;;;;;;;5.67;78.47;100955.66;5028571;27;104083;-70
2023/12/16 06:10:42;;;;;;;6.15;4.20;;;;;;;5.60;78.59;100960.38;5028139;27;103397;-69
2023/12/16 06:13:10;;;;;;;6.35;4.30;;;;;;;5.62;78.92;100959.38;5011792;27;103228;-70
2023/12/16 06:15:40;;;;;;;8.02;5.68;;;;;;;5.54;79.01;100956.31;5028095;27;102999;-69
2023/12/16 06:18:09;;;;;;;6.00;4.13;;;;;;;5.50;79.49;100969.69;5033210;27;102722;-71
2023/12/16 06:20:41;;;;;;;6.80;4.18;;;;;;;5.43;79.46;100970.00;5031682;27;104170;-69
2023/12/16 06:23:09;;;;;;;6.53;4.40;;;;;;;5.47;79.48;100968.06;5015063;27;103309;-69
2023/12/16 06:25:37;;;;;;;5.45;3.83;;;;;;;5.47;79.45;100971.53;5030539;27;102673;-70
2023/12/16 06:28:05;;;;;;;5.72;4.22;;;;;;;5.52;79.37;100978.34;5028456;27;102902;-69
2023/12/16 06:30:34;;;;;;;6.75;3.97;;;;;;;5.52;79.56;100979.19;5002795;27;103920;-70
2023/12/16 06:33:02;;;;;;;5.43;4.10;;;;;;;5.52;79.10;100978.34;5030171;27;103202;-70
2023/12/16 06:35:31;;;;;;;6.03;3.97;;;;;;;5.50;79.22;100980.19;5006671;27;102766;-70
2023/12/16 06:38:00;;;;;;;5.05;3.28;;;;;;;5.52;79.41;100983.59;5025273;27;102695;-69
2023/12/16 06:40:28;;;;;;;5.25;3.50;;;;;;;5.53;79.16;100996.66;5025983;27;104115;-70
2023/12/16 06:42:56;;;;;;;5.38;3.88;;;;;;;5.46;79.52;100990.00;5003151;27;104645;-70
2023/12/16 06:45:24;;;;;;;5.05;3.47;;;;;;;5.44;79.11;100991.88;5029616;27;102657;-70
2023/12/16 06:47:53;;;;;;;6.53;4.10;;;;;;;5.47;79.69;100992.56;5028714;27;103758;-70
2023/12/16 06:50:23;;;;;;;7.40;4.60;;;;;;;5.51;79.58;100993.25;5024755;27;104103;-71
2023/12/16 06:52:51;;;;;;;5.65;3.90;;;;;;;5.47;79.29;100991.72;5010785;27;104010;-70
2023/12/16 06:55:21;;;;;;;6.53;4.38;;;;;;;5.47;79.06;100987.28;5008357;27;102755;-70
2023/12/16 06:57:50;;;;;;;6.78;4.53;;;;;;;5.48;79.03;100982.91;5027960;27;103429;-70
2023/12/16 07:00:19;;;;;;;6.22;4.55;;;;;;;5.39;78.88;100981.59;5013033;27;103784;-70
2023/12/16 07:02:48;;;;;;;5.60;3.30;;;;;;;5.42;79.20;100978.81;5026878;27;103294;-71
2023/12/16 07:05:16;;;;;;;5.95;3.80;;;;;;;5.38;78.59;100982.50;5047535;27;103017;-70
2023/12/16 07:07:44;;;;;;;5.22;3.83;;;;;;;5.38;78.95;100984.31;5028211;27;103085;-69
2023/12/16 07:10:13;;;;;;;5.50;3.83;;;;;;;5.36;78.81;100992.28;5010745;27;104365;-69
2023/12/16 07:12:43;;;;;;;5.55;3.78;;;;;;;5.36;78.52;100987.03;5011286;27;103273;-69
2023/12/16 07:15:11;;;;;;;6.80;3.90;;;;;;;5.36;78.94;100989.66;5023119;27;102788;-69
2023/12/16 07:17:40;;;;;;;5.72;4.10;;;;;;;5.40;78.87;101001.69;5026883;27;102743;-72
2023/12/16 07:20:12;;;;;;;6.13;4.03;;;;;;;5.35;78.94;101006.34;5013590;27;103815;-60
2023/12/16 07:22:40;;;;;;;6.05;3.75;;;;;;;5.36;79.23;101000.16;5028085;27;103178;-69
2023/12/16 07:25:08;;;;;;;6.53;4.13;;;;;;;5.40;79.30;101004.31;5041029;27;102768;-69
2023/12/16 07:27:36;;;;;;;5.72;4.10;;;;;;;5.42;79.29;101005.09;5012496;27;103852;-70
2023/12/16 07:30:08;;;;;;;7.63;4.20;;;;;;;5.46;79.14;101001.41;5028484;27;103283;-69
2023/12/16 07:32:36;;;;;;;6.28;4.55;;;;;;;5.46;78.98;101005.78;5034736;27;103294;-69
2023/12/16 07:35:12;;;;;;;6.93;4.40;;;;;;;5.48;79.24;100996.06;5027559;27;102675;-70
2023/12/16 07:37:41;;;;;;;6.80;4.10;;;;;;;5.48;79.13;101004.78;5035602;27;102769;-70
2023/12/16 07:40:10;;;;;;;5.50;3.90;;;;;;;5.53;79.21;101001.06;5034649;27;103386;-70
2023/12/16 07:42:39;;;;;;;5.20;3.58;;;;;;;5.53;79.23;100998.44;5031056;27;103220;-69
2023/12/16 07:45:10;;;;;;;7.68;5.40;;;;;;;5.58;78.77;101005.16;5027234;27;102687;-70
2023/12/16 07:47:39;;;;;;;8.00;5.25;;;;;;;5.41;79.32;101016.53;5012706;27;102704;-73
2023/12/16 07:50:10;;;;;;;9.32;6.63;;;;;;;5.34;79.57;101015.13;5034847;27;103467;-73
2023/12/16 07:52:40;;;;;;;6.20;4.73;;;;;;;5.36;79.91;101021.19;5017338;27;103232;-72
2023/12/16 07:55:09;;;;;;;11.60;6.65;;;;;;;5.30;80.12;101018.84;5017095;27;102727;-73
2023/12/16 07:57:37;;;;;;;9.05;6.68;;;;;;;5.10;80.51;101025.13;5018720;27;104194;-72
2023/12/16 08:00:08;;;;;;;10.40;6.60;;;;;;;5.02;81.03;101033.38;5032766;27;103833;-73
2023/12/16 08:02:38;;;;;;;8.73;5.38;;;;;;;5.14;80.88;101038.00;5015194;27;103084;-72
2023/12/16 08:05:07;;;;;;;8.38;5.57;;;;;;;5.08;80.53;101040.94;5041480;27;102980;-72
2023/12/16 08:07:37;;;;;;;9.07;6.85;;;;;;;5.00;81.06;101045.72;5016786;27;104378;-73
2023/12/16 08:10:07;;;;;;;11.00;6.90;;;;;;;5.04;81.06;101042.00;5034406;27;103248;-73
2023/12/16 08:12:35;;;;;;;10.60;7.47;;;;;;;5.00;81.23;101045.72;5019627;27;103207;-73
2023/12/16 08:15:04;;;;;;;13.43;9.98;;;;;;;5.01;81.18;101047.41;5012495;27;102758;-73
2023/12/16 08:17:32;;;;;;;9.60;7.50;;;;;;;5.11;80.99;101053.09;5034087;27;102665;-73
2023/12/16 08:20:02;;;;;;;10.88;6.57;;;;;;;5.19;80.63;101057.94;5045858;27;103980;-73
2023/12/16 08:22:32;;;;;;;13.70;8.98;;;;;;;5.27;80.75;101053.19;5017304;27;103244;-73
2023/12/16 08:25:01;;;;;;;14.00;8.20;;;;;;;5.27;80.44;101056.66;5017397;27;102898;-73
2023/12/16 08:27:29;;;;;;;10.02;8.15;;;;;;;5.30;79.83;101058.28;5038771;27;104261;-73
2023/12/16 08:29:57;;;;;;;12.18;8.75;;;;;;;5.29;79.76;101060.06;5036173;27;104028;-73
2023/12/16 08:32:25;;;;;;;9.02;6.43;;;;;;;5.30;79.66;101063.53;5047069;27;104002;-73
2023/12/16 08:34:53;;;;;;;7.07;5.20;;;;;;;5.42;79.71;101072.56;5021215;27;102593;-71
2023/12/16 08:37:23;;;;;;;7.13;5.38;;;;;;;5.57;79.21;101066.56;5018044;27;104061;-72
2023/12/16 08:39:51;;;;;;;8.13;6.47;;;;;;;5.65;79.52;101069.63;5016482;27;103188;-72
2023/12/16 08:42:18;;;;;;;15.23;7.50;;;;;;;5.73;79.88;101076.28;5037447;27;103204;-71
2023/12/16 08:44:46;;;;;;;8.75;5.72;;;;;;;5.81;79.48;101074.94;5016964;27;103183;-72
2023/12/16 08:47:14;;;;;;;7.82;5.05;;;;;;;5.86;79.39;101080.00;5038818;27;104102;-72
2023/12/16 08:49:45;;;;;;;6.75;4.95;;;;;;;5.89;79.36;101079.81;5038337;27;104120;-72
2023/12/16 08:52:14;;;;;;;6.93;4.75;;;;;;;5.96;78.83;101088.25;5017505;27;103401;-73
2023/12/16 08:54:44;;;;;;;6.43;4.45;;;;;;;5.97;78.43;101079.44;5037670;27;103067;-72
2023/12/16 08:57:12;;;;;;;8.05;5.25;;;;;;;5.93;78.17;101077.88;5030887;27;102651;-73
2023/12/16 08:59:42;;;;;;;6.60;4.88;;;;;;;5.89;78.72;101081.63;5035451;27;104274;-73
2023/12/16 09:02:10;;;;;;;6.53;5.13;;;;;;;5.84;78.75;101089.72;5017266;27;103095;-73
2023/12/16 09:04:40;;;;;;;13.10;10.48;;;;;;;5.75;78.77;101085.81;5030199;27;102583;-72
2023/12/16 09:07:08;;;;;;;9.35;5.80;;;;;;;5.88;78.99;101091.28;5028030;27;102902;-73
2023/12/16 09:09:39;;;;;;;8.20;5.80;;;;;;;5.91;78.39;101095.56;5031950;27;104415;-72
2023/12/16 09:12:08;;;;;;;6.05;4.40;;;;;;;6.01;78.36;101096.78;5034093;27;103221;-74
2023/12/16 09:14:38;;;;;;;6.00;4.18;;;;;;;6.10;78.48;101098.94;5033509;27;102647;-73
2023/12/16 09:17:06;;;;;;;7.60;5.40;;;;;;;6.18;78.03;101108.22;5025072;27;102801;-73
2023/12/16 09:19:34;;;;;;;6.50;5.25;;;;;;;6.10;77.81;101119.13;5016725;27;103613;-73
2023/12/16 09:22:02;;;;;;;9.02;6.55;;;;;;;6.16;77.35;101112.69;5036162;27;103608;-73
2023/12/16 09:24:30;;;;;;;7.32;5.07;;;;;;;6.15;77.08;101114.50;5012986;27;102738;-73
2023/12/16 09:26:58;;;;;;;7.90;6.45;;;;;;;6.17;77.18;101123.16;5039046;27;104028;-73
2023/12/16 09:29:27;;;;;;;10.57;6.85;;;;;;;6.06;76.69;101118.44;5031647;27;103302;-73
2023/12/16 09:31:58;;;;;;;8.45;6.05;;;;;;;6.15;77.04;101125.00;5021710;27;104226;-73
2023/12/16 09:34:26;;;;;;;8.90;5.30;;;;;;;6.12;76.63;101119.91;5041098;27;102744;-72
2023/12/16 09:36:54;;;;;;;8.77;5.90;;;;;;;6.14;75.95;101118.91;5042313;27;103752;-73
2023/12/16 09:39:23;;;;;;;7.22;5.28;;;;;;;6.04;76.85;101125.56;5018379;27;103813;-72
2023/12/16 09:41:52;;;;;;;8.10;5.72;;;;;;;6.13;77.17;101122.47;5021607;27;103963;-73
2023/12/16 09:44:20;;;;;;;6.43;4.80;;;;;;;6.21;77.21;101118.56;5041149;27;102596;-73
2023/12/16 09:46:50;;;;;;;10.23;6.15;;;;;;;6.32;76.91;101115.41;5022753;27;102870;-73
2023/12/16 09:49:21;;;;;;;8.75;5.03;;;;;;;6.35;76.50;101108.16;5034449;27;103331;-69
2023/12/16 09:51:50;;;;;;;6.28;4.70;;;;;;;6.34;76.20;101114.38;5026132;27;103176;-69
2023/12/16 09:54:18;;;;;;;7.60;5.85;;;;;;;6.38;75.24;101118.56;5015943;27;102658;-69
2023/12/16 09:56:49;;;;;;;9.68;5.90;;;;;;;6.42;75.29;101116.59;5030808;27;102849;-69
2023/12/16 09:59:18;;;;;;;6.63;4.45;;;;;;;6.54;75.67;101115.94;5009037;27;103365;-69
2023/12/16 10:01:54;;;;;;;6.40;4.68;;;;;;;6.64;75.67;101111.00;5007746;27;103265;-69
2023/12/16 10:04:22;;;;;;;7.07;4.90;;;;;;;6.75;75.76;101113.91;5028706;27;102675;-69
2023/12/16 10:06:50;;;;;;;6.47;4.90;;;;;;;6.83;75.58;101120.56;5007840;27;102904;-69
2023/12/16 10:09:18;;;;;;;7.00;4.90;;;;;;;6.87;74.95;101117.66;5010890;27;104487;-74
2023/12/16 10:11:51;;;;;;;6.90;4.85;;;;;;;6.95;75.36;101106.69;5013440;27;103352;-69
2023/12/16 10:14:19;;;;;;;7.57;5.35;;;;;;;6.99;74.67;101108.22;5011709;27;102846;-69
2023/12/16 10:16:47;;;;;;;10.45;5.78;;;;;;;7.03;73.91;101107.13;5018776;27;102741;-73
2023/12/16 10:19:18;;;;;;;6.88;4.68;;;;;;;7.05;74.04;101105.25;5027860;27;104017;-73
2023/12/16 10:21:47;;;;;;;7.97;5.63;;;;;;;7.07;73.22;101100.72;5019392;27;104148;-73
2023/12/16 10:24:15;;;;;;;7.63;5.07;;;;;;;7.17;73.86;101097.59;5030276;27;102590;-72
2023/12/16 10:26:46;;;;;;;8.38;5.30;;;;;;;7.20;72.27;101097.41;5009817;27;104422;-73
2023/12/16 10:29:14;;;;;;;6.85;4.82;;;;;;;7.14;73.22;101096.81;5011602;27;104480;-74
2023/12/16 10:31:42;;;;;;;9.30;6.18;;;;;;;7.18;72.78;101091.38;5032638;27;102931;-73
2023/12/16 10:34:12;;;;;;;7.65;5.07;;;;;;;7.10;72.74;101097.94;5018652;27;102639;-73
2023/12/16 10:36:41;;;;;;;10.10;5.57;;;;;;;7.05;72.90;101092.06;5008399;27;102805;-73
2023/12/16 10:39:09;;;;;;;8.45;5.07;;;;;;;7.21;72.98;101088.56;5030796;27;103356;-73
2023/12/16 10:41:37;;;;;;;9.02;6.63;;;;;;;7.18;72.05;101094.00;5033716;27;103193;-73
2023/12/16 10:44:07;;;;;;;7.47;5.45;;;;;;;7.15;73.17;101084.50;5013820;27;102759;-73
2023/12/16 10:46:36;;;;;;;9.00;5.50;;;;;;;7.30;72.74;101082.78;5028033;27;103779;-72
2023/12/16 10:49:08;;;;;;;7.10;4.72;;;;;;;7.37;73.10;101078.84;5030649;27;103234;-72
2023/12/16 10:51:43;;;;;;;10.20;6.40;;;;;;;7.34;70.72;101073.75;5011075;27;103484;-72
2023/12/16 10:54:22;;;;;;;8.43;4.80;;;;;;;7.35;71.38;101070.19;5018791;27;102671;-72
2023/12/16 10:57:03;;;;;;;7.68;4.72;;;;;;;7.53;71.45;101072.66;5006025;27;104275;-70
2023/12/16 10:59:35;;;;;;;5.70;4.07;;;;;;;7.59;71.78;101061.78;5010426;27;103107;-70
2023/12/16 11:02:10;;;;;;;6.78;5.13;;;;;;;7.68;71.66;101073.56;5027798;27;103329;-69
2023/12/16 11:04:40;;;;;;;6.32;4.53;;;;;;;7.64;72.12;101062.34;5008791;27;103010;-69
2023/12/16 11:07:11;;;;;;;9.10;5.30;;;;;;;7.73;71.33;101066.22;5024623;27;104901;-69
2023/12/16 11:09:40;;;;;;;8.77;5.65;;;;;;;7.71;71.44;101061.03;5007847;27;103245;-69
2023/12/16 11:12:09;;;;;;;8.40;5.97;;;;;;;7.65;69.54;101066.69;5007763;27;104549;-66
2023/12/16 11:14:38;;;;;;;6.90;5.75;;;;;;;7.47;70.73;101063.34;5007767;27;102791;-67
2023/12/16 11:17:13;;;;;;;12.05;6.20;;;;;;;7.21;70.89;101070.13;5024727;27;102668;-66
2023/12/16 11:19:45;;;;;;;7.70;5.55;;;;;;;7.45;70.53;101065.22;5009770;27;103998;-66
2023/12/16 11:22:21;;;;;;;10.93;6.53;;;;;;;7.50;70.22;101064.94;5007540;27;103309;-66
2023/12/16 11:24:51;;;;;;;8.27;5.22;;;;;;;7.32;70.43;101065.06;5030326;27;102661;-66
2023/12/16 11:27:20;;;;;;;9.75;6.00;;;;;;;7.55;70.11;101065.53;5003050;27;104126;-66
2023/12/16 11:29:48;;;;;;;7.18;4.88;;;;;;;7.51;69.33;101061.38;5025093;27;103307;-66
2023/12/16 11:32:18;;;;;;;12.43;6.55;;;;;;;7.72;68.49;101052.19;5027747;27;104449;-67
2023/12/16 11:34:49;;;;;;;7.40;5.85;;;;;;;7.54;69.28;101055.91;5028421;27;102624;-67